Time;durP1;ratioP1;P1;durP2;ratioP2;P2;SDS_P1;SDS_P2;PMS_P1;PMS_P2;Temp;Humidity;BMP_temperature;BMP_pressure;BME280_temperature;BME280_humidity;BME280_pressure;Samples;Min_cycle;Max_cycle;Signal;HPM_P1;HPM_P2
2022/03/27 00:01:52;;;;;;;19.53;12.17;;;10.30;67.50;;;;;;10382758;28;20206;-84
2022/03/27 00:06:54;;;;;;;25.23;13.80;;;10.30;67.30;;;;;;10396408;28;20744;-84
2022/03/27 00:11:58;;;;;;;23.07;12.33;;;10.30;67.70;;;;;;10387200;28;20312;-84
2022/03/27 00:17:00;;;;;;;23.37;13.80;;;10.20;67.70;;;;;;10404646;28;20224;-84
2022/03/27 00:22:04;;;;;;;21.57;14.20;;;10.10;68.20;;;;;;10390103;28;20248;-84
2022/03/27 00:27:07;;;;;;;19.67;12.23;;;10.10;68.70;;;;;;10374988;28;20305;-84
2022/03/27 00:32:10;;;;;;;21.73;13.73;;;10.00;67.90;;;;;;10396222;28;20221;-85
2022/03/27 00:37:12;;;;;;;18.97;11.90;;;10.00;68.30;;;;;;10401574;28;20224;-83
2022/03/27 00:42:16;;;;;;;21.47;14.37;;;10.00;68.60;;;;;;10435364;28;20194;-84
2022/03/27 00:47:18;;;;;;;20.60;13.73;;;9.90;70.00;;;;;;10408596;28;20222;-84
2022/03/27 00:52:20;;;;;;;31.73;13.83;;;9.90;70.90;;;;;;10390778;28;20291;-84
2022/03/27 00:57:24;;;;;;;19.37;13.83;;;9.70;71.20;;;;;;10373690;28;20222;-83
2022/03/27 01:02:27;;;;;;;25.37;14.47;;;9.70;71.30;;;;;;10392898;28;20204;-84
2022/03/27 01:07:29;;;;;;;19.30;13.17;;;9.70;71.40;;;;;;10402758;28;20241;-84
2022/03/27 01:12:38;;;;;;;18.63;12.50;;;9.70;71.50;;;;;;10367825;28;20324;-85
2022/03/27 01:17:40;;;;;;;20.20;12.67;;;9.70;71.90;;;;;;10352207;28;20702;-84
2022/03/27 01:22:44;;;;;;;18.63;12.83;;;9.60;72.30;;;;;;10412022;28;20274;-84
2022/03/27 01:27:46;;;;;;;21.63;13.40;;;9.60;71.70;;;;;;10376265;28;20575;-84
2022/03/27 01:32:51;;;;;;;21.53;13.67;;;9.50;71.50;;;;;;10397258;28;20225;-84
2022/03/27 01:37:54;;;;;;;20.67;13.40;;;9.40;72.80;;;;;;10408621;28;20272;-85
2022/03/27 01:42:56;;;;;;;17.73;14.20;;;9.40;72.60;;;;;;10412664;28;20246;-84
2022/03/27 01:47:58;;;;;;;19.20;13.93;;;9.30;74.00;;;;;;10355099;28;20222;-84
2022/03/27 01:53:02;;;;;;;20.50;14.37;;;9.30;73.30;;;;;;10361038;28;20250;-84
2022/03/27 01:58:08;;;;;;;21.73;13.87;;;9.30;73.60;;;;;;10395868;28;20761;-84
2022/03/27 02:03:11;;;;;;;17.80;12.67;;;9.30;73.30;;;;;;10407357;28;20202;-85
2022/03/27 02:08:14;;;;;;;18.97;13.23;;;9.20;73.00;;;;;;10385798;28;20233;-85
2022/03/27 02:13:19;;;;;;;18.90;14.83;;;9.20;73.50;;;;;;10408636;28;20690;-85
2022/03/27 02:18:22;;;;;;;16.17;13.40;;;9.10;73.10;;;;;;10362252;28;20690;-84
2022/03/27 02:23:26;;;;;;;20.77;14.23;;;9.10;72.70;;;;;;10401517;28;20275;-84
2022/03/27 02:28:28;;;;;;;18.90;14.40;;;9.00;73.00;;;;;;10376548;28;20722;-85
2022/03/27 02:33:30;;;;;;;24.13;15.27;;;8.90;71.80;;;;;;10372685;28;20275;-85
2022/03/27 02:38:34;;;;;;;21.57;13.97;;;8.80;73.60;;;;;;10399846;28;20244;-84
2022/03/27 02:43:38;;;;;;;21.70;14.87;;;8.80;73.20;;;;;;10376071;28;20603;-84
2022/03/27 02:48:40;;;;;;;23.20;15.50;;;8.70;74.20;;;;;;10415597;28;20577;-84
2022/03/27 02:53:44;;;;;;;19.63;13.57;;;8.70;74.10;;;;;;10382771;28;20222;-85
2022/03/27 02:58:46;;;;;;;23.20;15.37;;;8.70;74.40;;;;;;10398414;28;20218;-84
2022/03/27 03:03:48;;;;;;;18.83;13.97;;;8.70;72.80;;;;;;10387131;28;20205;-84
2022/03/27 03:08:53;;;;;;;21.30;15.03;;;8.60;75.20;;;;;;10453022;22;20679;-87
2022/03/27 03:13:55;;;;;;;24.43;14.87;;;8.60;75.00;;;;;;10479561;28;20213;-87
2022/03/27 03:18:58;;;;;;;22.83;15.43;;;8.60;75.40;;;;;;10452304;28;20219;-86
2022/03/27 03:24:06;;;;;;;19.20;13.13;;;8.60;75.20;;;;;;10503150;28;20192;-86
2022/03/27 03:29:08;;;;;;;24.67;14.63;;;8.60;74.80;;;;;;10486290;28;20224;-87
2022/03/27 03:34:11;;;;;;;22.60;14.17;;;8.60;74.90;;;;;;10460652;28;20309;-84
2022/03/27 03:39:17;;;;;;;22.27;15.17;;;8.60;74.40;;;;;;10493214;28;20248;-84
2022/03/27 03:44:26;;;;;;;21.97;14.47;;;8.60;74.40;;;;;;10499096;28;20276;-87
2022/03/27 03:49:28;;;;;;;20.43;14.30;;;8.40;74.20;;;;;;10482109;28;20224;-85
2022/03/27 03:54:34;;;;;;;19.20;14.50;;;8.30;74.70;;;;;;10455555;28;20221;-86
2022/03/27 03:59:38;;;;;;;20.83;13.93;;;8.30;75.60;;;;;;10496111;28;20610;-84
2022/03/27 04:04:41;;;;;;;20.93;14.70;;;8.20;75.30;;;;;;10472495;28;20224;-83
2022/03/27 04:09:48;;;;;;;16.93;13.50;;;8.20;77.50;;;;;;10471446;28;20229;-84
2022/03/27 04:14:50;;;;;;;18.37;13.77;;;8.20;76.40;;;;;;10477689;28;20680;-84
2022/03/27 04:19:52;;;;;;;19.10;13.20;;;8.20;76.40;;;;;;10487211;28;20221;-84
2022/03/27 04:25:01;;;;;;;18.57;13.23;;;8.20;76.60;;;;;;10459781;28;20197;-85
2022/03/27 04:30:11;;;;;;;29.97;14.60;;;8.20;76.20;;;;;;10458808;28;20221;-87
2022/03/27 04:35:18;;;;;;;18.03;14.30;;;8.20;77.90;;;;;;10448490;28;20224;-86
2022/03/27 04:40:22;;;;;;;15.27;12.33;;;8.20;76.90;;;;;;10462296;28;20684;-87
2022/03/27 04:45:25;;;;;;;21.50;14.40;;;8.10;76.90;;;;;;10501958;28;20192;-86
2022/03/27 04:50:27;;;;;;;17.33;13.37;;;8.10;76.80;;;;;;10477063;28;20700;-86
2022/03/27 04:55:32;;;;;;;19.50;14.37;;;8.00;76.80;;;;;;10445586;28;20204;-86
2022/03/27 05:00:41;;;;;;;16.57;13.60;;;8.00;77.70;;;;;;10472891;28;20224;-86
2022/03/27 05:05:43;;;;;;;18.30;13.10;;;8.00;77.30;;;;;;10463401;28;20575;-84
2022/03/27 05:10:49;;;;;;;18.20;13.07;;;7.90;77.50;;;;;;10483584;28;20703;-83
2022/03/27 05:15:51;;;;;;;19.80;14.10;;;7.80;77.80;;;;;;10463488;28;20262;-86
2022/03/27 05:20:53;;;;;;;16.80;14.07;;;7.80;78.00;;;;;;10450521;28;20293;-87
2022/03/27 05:26:00;;;;;;;21.47;14.40;;;7.80;78.20;;;;;;10455570;28;20193;-87
2022/03/27 05:31:08;;;;;;;18.33;13.13;;;7.80;78.00;;;;;;10438039;28;20309;-87
2022/03/27 05:36:11;;;;;;;21.00;13.60;;;7.80;78.50;;;;;;10438318;28;20217;-86
2022/03/27 05:41:14;;;;;;;19.40;13.80;;;7.80;77.80;;;;;;10455057;28;20201;-86
2022/03/27 05:46:16;;;;;;;19.00;15.03;;;7.80;78.60;;;;;;10438934;28;20254;-87
2022/03/27 05:51:19;;;;;;;21.97;15.73;;;7.80;79.40;;;;;;10438246;28;20247;-87
2022/03/27 05:56:22;;;;;;;18.93;13.80;;;7.70;79.70;;;;;;10438005;28;20668;-87
2022/03/27 06:01:24;;;;;;;25.03;14.63;;;7.80;79.00;;;;;;10468123;28;20243;-87
2022/03/27 06:06:29;;;;;;;21.33;15.80;;;7.80;79.20;;;;;;10495731;28;20193;-86
2022/03/27 06:11:33;;;;;;;30.47;16.20;;;7.90;79.50;;;;;;10478416;28;20209;-86
2022/03/27 06:16:37;;;;;;;24.80;16.67;;;8.00;78.80;;;;;;10493998;28;20197;-86
2022/03/27 06:21:43;;;;;;;22.63;15.87;;;8.00;79.00;;;;;;10438199;28;20193;-87
2022/03/27 06:26:47;;;;;;;26.33;17.13;;;8.00;78.10;;;;;;10452951;28;20196;-86
2022/03/27 06:31:50;;;;;;;26.10;17.10;;;8.00;78.10;;;;;;10437404;28;20263;-87
2022/03/27 06:36:52;;;;;;;21.93;16.47;;;8.00;78.60;;;;;;10443371;28;20593;-86
2022/03/27 06:41:56;;;;;;;22.67;15.80;;;8.00;80.30;;;;;;10447911;28;20201;-88
2022/03/27 06:46:58;;;;;;;17.30;13.40;;;8.10;79.50;;;;;;10445973;28;20232;-88
2022/03/27 06:52:01;;;;;;;24.60;16.30;;;8.20;80.00;;;;;;10462428;28;20212;-88
2022/03/27 06:57:05;;;;;;;24.37;17.07;;;8.30;79.90;;;;;;10456925;28;20225;-87
2022/03/27 07:07:32;;;;;;;22.40;16.70;;;8.50;80.50;;;;;;10477739;28;20232;-89
2022/03/27 07:12:36;;;;;;;27.37;17.03;;;8.70;79.30;;;;;;10457910;28;20271;-88
2022/03/27 07:17:44;;;;;;;24.43;17.50;;;8.90;80.30;;;;;;10466869;28;20223;-87
2022/03/27 07:22:47;;;;;;;25.63;18.53;;;8.90;79.90;;;;;;10460182;28;20225;-87
2022/03/27 07:27:51;;;;;;;24.40;18.00;;;9.10;79.40;;;;;;10509464;28;20315;-87
2022/03/27 07:32:53;;;;;;;27.53;17.77;;;9.20;78.20;;;;;;10497419;28;20216;-87
2022/03/27 07:37:56;;;;;;;21.13;17.07;;;9.30;80.00;;;;;;10463499;28;20227;-87
2022/03/27 07:43:00;;;;;;;21.93;17.23;;;9.50;79.60;;;;;;10481426;28;20197;-86
2022/03/27 07:48:04;;;;;;;24.33;18.17;;;9.70;79.00;;;;;;10465645;28;20270;-86
2022/03/27 07:53:06;;;;;;;22.90;18.30;;;9.80;78.90;;;;;;10505338;28;20228;-87
2022/03/27 07:58:10;;;;;;;26.70;17.90;;;9.90;78.90;;;;;;10474565;28;20220;-87
2022/03/27 08:03:15;;;;;;;32.20;18.47;;;10.20;77.50;;;;;;10464580;28;20193;-87
2022/03/27 08:08:17;;;;;;;25.90;18.40;;;10.60;77.80;;;;;;10461758;28;20593;-87
2022/03/27 08:13:21;;;;;;;21.47;17.70;;;10.90;75.10;;;;;;10440950;28;20214;-86
2022/03/27 08:18:33;;;;;;;21.00;18.20;;;11.30;74.10;;;;;;10455995;28;20243;-86
2022/03/27 08:23:35;;;;;;;20.23;16.57;;;11.60;74.50;;;;;;10475001;28;20192;-85
2022/03/27 08:28:39;;;;;;;22.90;16.77;;;11.90;74.00;;;;;;10475485;28;20233;-86
2022/03/27 08:33:42;;;;;;;16.07;13.40;;;12.10;73.90;;;;;;10461750;28;20220;-86
2022/03/27 08:38:45;;;;;;;23.00;17.73;;;12.30;72.80;;;;;;10460611;28;20219;-86
2022/03/27 08:43:58;;;;;;;26.20;17.73;;;12.50;72.20;;;;;;10452263;28;20687;-86
2022/03/27 08:49:01;;;;;;;25.77;16.60;;;12.70;71.70;;;;;;10463186;28;20228;-86
2022/03/27 08:54:06;;;;;;;22.53;17.27;;;12.80;71.20;;;;;;10441462;28;20712;-87
2022/03/27 08:59:11;;;;;;;19.90;15.57;;;13.00;70.60;;;;;;10473406;28;20245;-86
2022/03/27 09:04:14;;;;;;;21.77;14.57;;;13.20;70.40;;;;;;10467459;28;20201;-86
2022/03/27 09:09:17;;;;;;;19.37;15.40;;;13.30;69.50;;;;;;10459552;28;20318;-88
2022/03/27 09:14:21;;;;;;;15.80;13.33;;;13.60;69.90;;;;;;10445172;28;20229;-88
2022/03/27 09:19:33;;;;;;;21.60;13.43;;;13.80;66.30;;;;;;10452040;28;20220;-87
2022/03/27 09:24:36;;;;;;;20.67;14.23;;;14.00;67.60;;;;;;10453548;28;20288;-86
2022/03/27 09:30:03;;;;;;;17.70;13.73;;;14.30;67.80;;;;;;10446011;28;20224;-86
2022/03/27 09:35:08;;;;;;;18.10;15.87;;;14.60;67.30;;;;;;10447856;28;20598;-86
2022/03/27 09:40:12;;;;;;;17.80;14.57;;;14.90;65.80;;;;;;10468633;28;20221;-88
2022/03/27 09:45:17;;;;;;;20.37;14.93;;;15.10;67.40;;;;;;10464915;28;20281;-87
2022/03/27 09:50:32;;;;;;;18.23;13.77;;;15.40;65.50;;;;;;10449601;28;20227;-87
2022/03/27 09:55:35;;;;;;;16.20;13.40;;;15.70;65.50;;;;;;10469140;28;20302;-85
2022/03/27 10:00:38;;;;;;;16.27;12.77;;;16.00;64.50;;;;;;10460037;28;20221;-85
2022/03/27 10:05:40;;;;;;;16.67;13.73;;;16.40;64.20;;;;;;10455888;28;20198;-85
2022/03/27 10:10:48;;;;;;;13.37;11.77;;;16.60;62.60;;;;;;10440236;28;20281;-86
2022/03/27 10:15:57;;;;;;;19.23;13.07;;;16.80;62.70;;;;;;10470056;28;20224;-86
2022/03/27 10:21:00;;;;;;;14.47;12.07;;;16.80;60.80;;;;;;10480112;28;20216;-86
2022/03/27 10:26:05;;;;;;;15.33;12.77;;;16.60;61.60;;;;;;10478238;28;20211;-86
2022/03/27 10:31:10;;;;;;;21.20;13.67;;;16.40;59.90;;;;;;10505972;28;20596;-86
2022/03/27 10:36:18;;;;;;;14.83;12.20;;;16.10;61.70;;;;;;10466155;28;20212;-86
2022/03/27 10:41:27;;;;;;;13.50;11.77;;;15.90;62.90;;;;;;10472998;28;20247;-86
2022/03/27 10:46:31;;;;;;;19.07;13.73;;;15.70;64.40;;;;;;10473036;28;20292;-84
2022/03/27 10:51:39;;;;;;;18.90;14.50;;;15.50;64.30;;;;;;10451503;28;20248;-83
2022/03/27 10:56:43;;;;;;;17.00;13.37;;;15.40;64.10;;;;;;10459911;28;20225;-86
2022/03/27 11:01:51;;;;;;;19.43;14.10;;;15.30;64.20;;;;;;10449667;28;20565;-86
2022/03/27 11:07:14;;;;;;;18.57;14.43;;;15.30;65.90;;;;;;10427722;28;20229;-87
2022/03/27 11:12:31;;;;;;;20.53;12.83;;;15.30;61.90;;;;;;10470252;28;20224;-85
2022/03/27 11:17:49;;;;;;;22.73;14.13;;;15.20;63.70;;;;;;10459703;28;20221;-87
2022/03/27 11:22:52;;;;;;;17.87;12.60;;;15.20;65.70;;;;;;10430039;28;20193;-84
2022/03/27 11:27:56;;;;;;;17.87;11.77;;;15.20;66.30;;;;;;10428662;28;20696;-83
2022/03/27 11:33:14;;;;;;;17.57;13.30;;;15.10;68.10;;;;;;10442154;28;20218;-79
2022/03/27 11:38:21;;;;;;;18.83;13.60;;;15.10;66.70;;;;;;10458171;28;20225;-82
2022/03/27 11:43:30;;;;;;;15.13;11.57;;;15.10;66.30;;;;;;10457733;28;20293;-81
2022/03/27 11:48:34;;;;;;;16.93;12.50;;;15.20;62.30;;;;;;10489934;28;20221;-81
2022/03/27 11:53:39;;;;;;;17.30;11.20;;;15.30;62.80;;;;;;10496316;28;20278;-81
2022/03/27 11:58:42;;;;;;;22.20;10.60;;;15.30;61.20;;;;;;10479654;28;20220;-85
2022/03/27 12:03:46;;;;;;;12.37;10.30;;;15.40;60.90;;;;;;10462075;28;20193;-82
2022/03/27 12:08:49;;;;;;;16.33;10.63;;;15.50;63.10;;;;;;10473809;28;20225;-83
2022/03/27 12:13:52;;;;;;;13.90;9.70;;;15.40;62.70;;;;;;10494045;28;20228;-83
2022/03/27 12:18:55;;;;;;;13.93;10.43;;;15.40;60.00;;;;;;10478394;28;20214;-81
2022/03/27 12:24:02;;;;;;;12.47;9.30;;;15.60;57.30;;;;;;10473511;28;20729;-81
2022/03/27 12:29:43;;;;;;;12.40;9.73;;;15.60;58.20;;;;;;10483218;28;20216;-82
2022/03/27 12:34:48;;;;;;;13.90;9.10;;;15.70;56.90;;;;;;10480589;28;20225;-81
2022/03/27 12:40:04;;;;;;;12.97;9.43;;;15.70;59.10;;;;;;10485657;28;20221;-81
2022/03/27 12:45:09;;;;;;;11.13;9.50;;;15.60;61.90;;;;;;10481870;28;20247;-81
2022/03/27 12:50:14;;;;;;;10.97;8.53;;;15.60;58.00;;;;;;10495160;28;20220;-83
2022/03/27 12:55:16;;;;;;;13.60;9.13;;;15.70;57.90;;;;;;10494346;28;20212;-82
2022/03/27 13:00:20;;;;;;;10.70;8.00;;;15.70;56.60;;;;;;10485600;28;20270;-80
2022/03/27 13:05:30;;;;;;;16.53;9.80;;;15.80;58.10;;;;;;10488685;28;20195;-81
2022/03/27 13:10:32;;;;;;;12.10;9.73;;;16.00;55.50;;;;;;10506279;28;20239;-82
2022/03/27 13:15:54;;;;;;;7.77;6.60;;;16.00;56.20;;;;;;10469599;28;20216;-82
2022/03/27 13:20:58;;;;;;;13.50;8.70;;;16.20;53.20;;;;;;10502546;28;20223;-82
2022/03/27 13:26:00;;;;;;;14.03;8.57;;;16.20;55.70;;;;;;10491384;28;20218;-82
2022/03/27 13:31:10;;;;;;;11.50;9.10;;;16.20;53.60;;;;;;10487978;28;20689;-81
2022/03/27 13:36:14;;;;;;;14.97;8.40;;;16.30;54.10;;;;;;10493986;28;20224;-82
2022/03/27 13:46:36;;;;;;;16.13;8.60;;;16.50;52.10;;;;;;10489755;28;20194;-80
2022/03/27 13:51:40;;;;;;;14.63;9.37;;;16.50;54.30;;;;;;10507632;28;20258;-80
2022/03/27 13:56:42;;;;;;;8.70;7.60;;;16.70;53.20;;;;;;10506096;28;20228;-80
2022/03/27 14:01:45;;;;;;;16.70;9.17;;;16.70;54.00;;;;;;10483714;28;20219;-81
2022/03/27 14:06:48;;;;;;;11.70;8.00;;;16.70;54.60;;;;;;10503175;28;20287;-80
2022/03/27 14:11:50;;;;;;;9.80;8.63;;;16.70;54.50;;;;;;10490854;28;20204;-80
2022/03/27 14:16:53;;;;;;;12.90;8.63;;;16.70;54.50;;;;;;10493697;28;20300;-81
2022/03/27 14:21:56;;;;;;;12.00;8.27;;;16.70;54.80;;;;;;10487068;28;20197;-80
2022/03/27 14:26:59;;;;;;;11.33;8.13;;;16.60;55.70;;;;;;10486319;28;20231;-80
2022/03/27 14:32:01;;;;;;;13.53;8.20;;;16.60;55.30;;;;;;10461194;28;20204;-81
2022/03/27 14:37:05;;;;;;;11.90;8.40;;;16.50;56.90;;;;;;10483285;28;20312;-80
2022/03/27 14:42:07;;;;;;;11.60;7.87;;;16.40;58.40;;;;;;10475483;28;20258;-80
2022/03/27 14:47:10;;;;;;;13.83;9.60;;;16.30;57.50;;;;;;10466506;28;20220;-82
2022/03/27 14:52:13;;;;;;;11.03;8.60;;;16.50;52.10;;;;;;10457363;28;20201;-80
2022/03/27 14:57:16;;;;;;;11.20;7.80;;;16.60;56.00;;;;;;10472090;28;20640;-80
2022/03/27 15:02:20;;;;;;;10.90;7.80;;;16.70;56.90;;;;;;10476010;28;20206;-80
2022/03/27 15:07:23;;;;;;;11.80;8.20;;;16.60;59.10;;;;;;10481850;28;20236;-81
2022/03/27 15:12:25;;;;;;;10.97;7.97;;;16.50;60.10;;;;;;10446637;28;20217;-82
2022/03/27 15:17:27;;;;;;;11.50;7.40;;;16.40;57.50;;;;;;10474054;28;20294;-81
2022/03/27 15:22:31;;;;;;;7.30;6.57;;;16.40;53.70;;;;;;10471507;28;20732;-81
2022/03/27 15:27:34;;;;;;;10.77;8.53;;;16.50;55.80;;;;;;10482554;28;20228;-81
2022/03/27 15:32:38;;;;;;;12.03;7.80;;;16.80;50.00;;;;;;10460272;28;20213;-80
2022/03/27 15:37:43;;;;;;;8.80;7.30;;;17.00;52.60;;;;;;10495923;28;20220;-81
2022/03/27 15:42:45;;;;;;;7.97;6.57;;;17.00;55.80;;;;;;10469844;28;20204;-79
2022/03/27 15:47:49;;;;;;;9.40;7.90;;;16.90;53.50;;;;;;10490038;28;20632;-82
2022/03/27 15:52:53;;;;;;;12.20;7.97;;;16.80;57.20;;;;;;10464587;28;20217;-81
2022/03/27 15:57:55;;;;;;;12.80;8.17;;;16.70;57.70;;;;;;10476015;28;20217;-80
2022/03/27 16:02:57;;;;;;;13.27;7.30;;;16.50;55.90;;;;;;10458678;28;20645;-78
2022/03/27 16:08:00;;;;;;;13.13;7.20;;;16.50;55.80;;;;;;10481632;28;20715;-80
2022/03/27 16:13:03;;;;;;;12.13;8.17;;;16.50;55.10;;;;;;10459344;28;20216;-81
2022/03/27 16:18:05;;;;;;;9.13;7.60;;;16.50;57.10;;;;;;10476864;28;20872;-80
2022/03/27 16:23:08;;;;;;;10.77;7.73;;;16.40;60.20;;;;;;10468621;28;20188;-79
2022/03/27 16:28:10;;;;;;;8.70;6.10;;;16.20;61.70;;;;;;10494418;28;20247;-80
2022/03/27 16:33:13;;;;;;;14.40;8.00;;;16.20;60.80;;;;;;10466614;28;20221;-82
2022/03/27 16:38:17;;;;;;;8.20;6.20;;;16.10;62.40;;;;;;10479574;28;20228;-80
2022/03/27 16:43:20;;;;;;;9.13;7.47;;;16.00;60.50;;;;;;10485914;28;20193;-82
2022/03/27 16:48:22;;;;;;;9.40;6.80;;;16.10;56.20;;;;;;10477127;28;20221;-79
2022/03/27 16:53:26;;;;;;;12.20;7.20;;;16.20;57.50;;;;;;10471548;28;20211;-81
2022/03/27 16:58:28;;;;;;;16.27;7.70;;;16.20;59.50;;;;;;10458726;28;20870;-80
2022/03/27 17:03:30;;;;;;;12.20;7.50;;;16.20;57.60;;;;;;10466858;28;20201;-82
2022/03/27 17:08:34;;;;;;;13.83;8.23;;;16.20;57.40;;;;;;10455319;28;20614;-81
2022/03/27 17:13:36;;;;;;;11.77;7.80;;;16.20;58.70;;;;;;10460986;28;20685;-80
2022/03/27 17:18:38;;;;;;;9.30;6.70;;;16.20;59.90;;;;;;10462205;28;20224;-80
2022/03/27 17:23:42;;;;;;;9.63;7.40;;;16.20;61.80;;;;;;10467645;28;20277;-80
2022/03/27 17:28:45;;;;;;;9.70;8.13;;;16.10;62.80;;;;;;10480069;28;20220;-80
2022/03/27 17:33:47;;;;;;;8.20;6.50;;;15.90;61.70;;;;;;10458245;28;20224;-81
2022/03/27 17:38:51;;;;;;;13.37;6.47;;;15.90;58.10;;;;;;10467044;28;20228;-81
2022/03/27 17:43:53;;;;;;;10.73;6.03;;;15.90;56.90;;;;;;10473471;28;20204;-80
2022/03/27 17:48:57;;;;;;;8.30;6.63;;;16.00;56.90;;;;;;10452567;28;20314;-81
2022/03/27 17:54:00;;;;;;;15.40;6.93;;;16.00;56.40;;;;;;10454913;28;20224;-80
2022/03/27 17:59:04;;;;;;;14.20;7.10;;;15.90;56.40;;;;;;10463575;28;20228;-81
2022/03/27 18:04:06;;;;;;;7.73;7.03;;;15.80;56.80;;;;;;10487308;28;20251;-81
2022/03/27 18:09:09;;;;;;;9.33;7.70;;;15.60;56.60;;;;;;10478329;28;20237;-81
2022/03/27 18:14:14;;;;;;;15.20;8.63;;;15.50;56.70;;;;;;10458752;28;20212;-81
2022/03/27 18:19:19;;;;;;;13.10;7.90;;;15.40;57.20;;;;;;10463642;28;20221;-80
2022/03/27 18:24:22;;;;;;;11.07;8.03;;;15.20;57.60;;;;;;10429296;28;20623;-82
2022/03/27 18:29:24;;;;;;;12.47;8.77;;;15.20;57.50;;;;;;10453853;28;20247;-79
2022/03/27 18:34:27;;;;;;;8.53;6.83;;;15.00;57.90;;;;;;10478080;28;20327;-82
2022/03/27 18:39:30;;;;;;;7.77;7.00;;;14.80;58.20;;;;;;10496186;28;20266;-81
2022/03/27 18:44:37;;;;;;;13.50;8.13;;;14.70;58.50;;;;;;10469857;28;20198;-81
2022/03/27 18:49:39;;;;;;;12.30;8.40;;;14.60;58.60;;;;;;10495128;28;20224;-80
2022/03/27 18:54:42;;;;;;;9.97;7.63;;;14.50;59.00;;;;;;10452924;28;20940;-79
2022/03/27 18:59:49;;;;;;;12.07;8.00;;;14.40;59.30;;;;;;10479617;28;20235;-81
2022/03/27 19:04:51;;;;;;;11.37;8.50;;;14.30;59.30;;;;;;10465148;28;20207;-81
2022/03/27 19:09:54;;;;;;;12.30;8.40;;;14.20;59.80;;;;;;10446756;28;20351;-82
2022/03/27 19:15:00;;;;;;;14.33;10.10;;;14.20;60.10;;;;;;10444419;28;20226;-81
2022/03/27 19:20:04;;;;;;;14.60;11.70;;;14.10;60.40;;;;;;10465870;28;20213;-83
2022/03/27 19:25:08;;;;;;;19.53;15.50;;;14.00;61.10;;;;;;10467632;28;20295;-81
2022/03/27 19:30:12;;;;;;;9.70;8.50;;;14.00;61.50;;;;;;10452433;28;20631;-80
2022/03/27 19:35:14;;;;;;;8.37;7.57;;;13.90;61.50;;;;;;10471615;28;20258;-79
2022/03/27 19:40:18;;;;;;;13.37;10.40;;;13.90;61.40;;;;;;10469223;28;20235;-82
2022/03/27 19:45:22;;;;;;;12.77;10.93;;;13.80;61.60;;;;;;10466511;28;20642;-83
2022/03/27 19:50:27;;;;;;;16.50;11.10;;;13.80;61.70;;;;;;10461652;28;20221;-82
2022/03/27 19:55:31;;;;;;;34.10;27.23;;;13.60;62.30;;;;;;10466177;28;20572;-81
2022/03/27 20:00:35;;;;;;;14.17;10.43;;;13.50;63.00;;;;;;10455408;28;20217;-82
2022/03/27 20:05:39;;;;;;;15.93;10.33;;;13.50;62.80;;;;;;10448337;28;20257;-80
2022/03/27 20:10:42;;;;;;;13.47;9.40;;;13.50;62.40;;;;;;10431110;28;20458;-80
2022/03/27 20:15:45;;;;;;;15.67;8.10;;;13.40;63.40;;;;;;10435217;28;20209;-80
2022/03/27 20:20:47;;;;;;;12.80;8.90;;;13.30;63.10;;;;;;10447644;28;20217;-81
2022/03/27 20:25:50;;;;;;;9.53;8.03;;;13.30;62.90;;;;;;10440359;28;20223;-81
2022/03/27 20:30:52;;;;;;;9.10;6.83;;;13.10;64.00;;;;;;10467491;28;20231;-81
2022/03/27 20:35:55;;;;;;;8.53;7.63;;;13.20;63.20;;;;;;10467233;28;20245;-80
2022/03/27 20:40:58;;;;;;;9.37;7.37;;;13.10;63.50;;;;;;10451283;28;20228;-80
2022/03/27 20:46:01;;;;;;;8.87;7.47;;;12.90;63.90;;;;;;10451938;28;20703;-79
2022/03/27 20:51:06;;;;;;;11.07;7.83;;;12.80;64.80;;;;;;10452970;28;20222;-80
2022/03/27 20:56:10;;;;;;;12.50;7.43;;;12.80;64.60;;;;;;10458943;28;20224;-82
2022/03/27 21:01:12;;;;;;;12.40;7.80;;;12.80;64.90;;;;;;10477208;28;20224;-79
2022/03/27 21:06:15;;;;;;;11.47;8.20;;;12.80;64.40;;;;;;10469518;28;20201;-81
2022/03/27 21:11:21;;;;;;;11.70;8.37;;;12.80;64.40;;;;;;10457109;28;20237;-81
2022/03/27 21:16:23;;;;;;;12.20;8.30;;;12.60;65.10;;;;;;10439108;28;20256;-81
2022/03/27 21:21:29;;;;;;;11.70;8.57;;;12.50;66.00;;;;;;10452080;28;20227;-81
2022/03/27 21:26:33;;;;;;;13.77;8.20;;;12.50;66.60;;;;;;10465687;28;20619;-82
2022/03/27 21:31:42;;;;;;;11.20;7.80;;;12.40;67.40;;;;;;10455655;28;20693;-81
2022/03/27 21:36:45;;;;;;;11.47;7.73;;;12.40;66.80;;;;;;10447145;28;20650;-81
2022/03/27 21:41:49;;;;;;;11.50;9.30;;;12.40;67.30;;;;;;10467589;28;20720;-81
2022/03/27 21:46:52;;;;;;;10.33;8.63;;;12.30;68.30;;;;;;10475286;28;20224;-81
2022/03/27 21:51:55;;;;;;;11.60;7.73;;;12.30;67.60;;;;;;10485630;28;20210;-81
2022/03/27 21:56:58;;;;;;;10.70;9.33;;;12.30;67.70;;;;;;10469342;28;20224;-81
2022/03/27 22:02:04;;;;;;;12.10;9.03;;;12.30;67.80;;;;;;10478884;28;20279;-81
2022/03/27 22:07:07;;;;;;;11.30;8.67;;;12.30;66.80;;;;;;10460334;28;20220;-80
2022/03/27 22:12:10;;;;;;;12.63;8.97;;;12.20;67.20;;;;;;10470361;28;20215;-81
2022/03/27 22:17:12;;;;;;;12.33;9.57;;;12.10;67.60;;;;;;10479779;28;20289;-82
2022/03/27 22:22:15;;;;;;;11.27;8.67;;;12.10;67.90;;;;;;10487527;28;20210;-81
2022/03/27 22:27:18;;;;;;;11.57;8.87;;;12.00;69.00;;;;;;10481766;28;20305;-81
2022/03/27 22:32:20;;;;;;;13.90;9.83;;;12.00;67.40;;;;;;10472342;28;20644;-81
2022/03/27 22:37:22;;;;;;;12.87;9.73;;;11.90;66.80;;;;;;10486595;28;20239;-82
2022/03/27 22:42:30;;;;;;;14.17;10.63;;;11.90;65.60;;;;;;10491816;28;20232;-82
2022/03/27 22:47:32;;;;;;;16.07;9.70;;;11.80;65.70;;;;;;10495102;28;20220;-81
2022/03/27 22:52:34;;;;;;;14.13;10.57;;;11.70;66.60;;;;;;10490026;28;20296;-80
2022/03/27 22:57:40;;;;;;;14.53;10.20;;;11.60;66.80;;;;;;10496225;28;20235;-81
2022/03/27 23:02:52;;;;;;;12.17;8.73;;;11.60;66.40;;;;;;10495367;28;20196;-81
2022/03/27 23:07:54;;;;;;;12.07;10.10;;;11.50;65.50;;;;;;10493318;28;20231;-82
2022/03/27 23:13:07;;;;;;;12.60;9.10;;;11.40;67.30;;;;;;10456377;28;20264;-82
2022/03/27 23:18:09;;;;;;;11.23;9.00;;;11.40;66.00;;;;;;10468839;28;20228;-82
2022/03/27 23:23:11;;;;;;;12.63;9.43;;;11.30;65.10;;;;;;10478473;28;20210;-82
2022/03/27 23:28:17;;;;;;;12.80;9.20;;;11.30;65.80;;;;;;10487412;28;20212;-81
2022/03/27 23:33:20;;;;;;;11.60;9.17;;;11.20;64.50;;;;;;10482319;28;20201;-81
2022/03/27 23:38:22;;;;;;;11.67;9.63;;;11.20;65.70;;;;;;10456603;28;20531;-81
2022/03/27 23:43:26;;;;;;;12.50;9.97;;;11.10;64.90;;;;;;10469197;28;20204;-81
2022/03/27 23:48:28;;;;;;;11.70;8.70;;;11.00;64.60;;;;;;10472809;28;20216;-81
2022/03/27 23:53:30;;;;;;;11.33;9.07;;;11.00;65.40;;;;;;10475608;28;20574;-81
2022/03/27 23:58:34;;;;;;;12.90;9.63;;;10.90;64.70;;;;;;10465510;28;20723;-82
